createdAt,value
2023-02-16T07:05:32.559Z,6.50
2023-02-16T07:07:59.453Z,7.60
2023-02-16T07:10:34.607Z,6.70
2023-02-16T07:13:07.088Z,7.80
2023-02-16T07:15:38.567Z,7.20
2023-02-16T07:18:09.421Z,5.60
2023-02-16T07:20:38.829Z,6.50
2023-02-16T07:23:11.209Z,6.70
2023-02-16T07:25:38.814Z,5.30
2023-02-16T07:28:06.877Z,5.60
2023-02-16T07:30:37.368Z,4.90
2023-02-16T07:33:27.932Z,4.60
2023-02-16T07:36:07.099Z,3.60
2023-02-16T07:38:40.750Z,3.50
2023-02-16T07:41:19.287Z,3.40
2023-02-16T07:43:48.209Z,4.90
2023-02-16T07:46:30.446Z,3.50
2023-02-16T07:48:59.632Z,5.30
2023-02-16T07:51:28.458Z,5.10
2023-02-16T07:53:58.920Z,5.30
2023-02-16T07:56:31.728Z,5.20
2023-02-16T07:59:00.530Z,4.60
2023-02-16T08:01:29.451Z,4.60
2023-02-16T08:03:58.173Z,4.10
2023-02-16T08:06:27.224Z,4.30
2023-02-16T08:08:54.100Z,4.20
2023-02-16T08:11:22.452Z,4.30
2023-02-16T08:13:50.197Z,3.20
2023-02-16T08:16:19.225Z,5.20
2023-02-16T08:18:47.078Z,3.20
2023-02-16T08:21:16.429Z,4.80
2023-02-16T08:23:46.851Z,2.50
2023-02-16T08:26:16.631Z,2.50
2023-02-16T08:28:47.181Z,2.00
2023-02-16T08:31:14.940Z,2.20
2023-02-16T08:33:42.028Z,2.80
2023-02-16T08:36:36.097Z,1.80
2023-02-16T08:39:17.396Z,3.00
2023-02-16T08:41:46.130Z,3.20
2023-02-16T08:44:13.584Z,2.50
2023-02-16T08:46:42.184Z,2.30
2023-02-16T08:49:12.161Z,1.90
2023-02-16T08:51:43.682Z,2.40
2023-02-16T08:54:20.790Z,2.50
2023-02-16T08:56:48.995Z,2.50
2023-02-16T08:59:17.895Z,3.20
2023-02-16T09:01:46.779Z,2.30
2023-02-16T09:04:15.600Z,2.50
2023-02-16T09:06:45.852Z,2.20
2023-02-16T09:09:13.114Z,2.30
2023-02-16T09:11:40.402Z,2.00
2023-02-16T09:14:11.661Z,1.90
2023-02-16T09:16:44.645Z,2.20
2023-02-16T09:19:14.603Z,2.90
2023-02-16T09:21:41.570Z,2.20
2023-02-16T09:24:08.462Z,2.20
2023-02-16T09:26:53.044Z,2.00
2023-02-16T09:29:20.668Z,2.20
2023-02-16T09:31:48.986Z,1.70
2023-02-16T09:34:18.503Z,2.00
2023-02-16T09:36:45.402Z,2.60
2023-02-16T09:39:13.271Z,2.30
2023-02-16T09:41:39.926Z,2.90
2023-02-16T09:44:32.919Z,2.30
2023-02-16T09:47:02.825Z,1.90
2023-02-16T09:49:38.576Z,2.00
2023-02-16T09:52:08.530Z,2.30
2023-02-16T09:54:54.651Z,2.10
2023-02-16T09:58:39.766Z,4.50
2023-02-16T10:04:38.401Z,2.30
2023-02-16T10:11:46.399Z,3.30
2023-02-16T10:14:36.906Z,2.50
2023-02-16T10:17:07.102Z,3.00
2023-02-16T10:19:47.911Z,4.20
2023-02-16T10:22:17.713Z,2.00
2023-02-16T10:24:51.529Z,1.80
2023-02-16T10:27:18.263Z,2.70
2023-02-16T10:29:44.920Z,2.90
2023-02-16T10:32:11.644Z,3.00
2023-02-16T10:34:48.800Z,2.00
2023-02-16T10:37:30.526Z,1.60
2023-02-16T10:40:10.160Z,1.60
2023-02-16T10:42:52.911Z,3.40
2023-02-16T10:45:34.124Z,2.60
2023-02-16T10:48:01.433Z,2.20
2023-02-16T10:50:37.168Z,2.10
2023-02-16T10:53:08.105Z,2.70
2023-02-16T10:55:42.534Z,2.60
2023-02-16T10:58:21.762Z,3.20
2023-02-16T11:01:11.171Z,4.10
2023-02-16T11:03:44.091Z,3.20
2023-02-16T11:06:39.047Z,3.70
2023-02-16T11:09:07.090Z,2.40
2023-02-16T11:11:38.843Z,2.50
2023-02-16T11:14:21.285Z,3.60
2023-02-16T11:16:49.591Z,2.50
2023-02-16T11:19:24.562Z,2.40
2023-02-16T11:21:58.192Z,2.40
2023-02-16T11:24:29.125Z,2.10
2023-02-16T11:27:17.807Z,2.30
2023-02-16T11:29:45.003Z,2.30
2023-02-16T11:32:12.608Z,1.50
2023-02-16T11:34:42.114Z,2.10
2023-02-16T11:37:25.386Z,2.70
2023-02-16T11:39:54.459Z,2.50
2023-02-16T11:42:32.335Z,2.20
2023-02-16T11:45:06.046Z,1.60
2023-02-16T11:47:39.176Z,1.80
2023-02-16T11:50:06.245Z,1.70
2023-02-16T11:52:33.015Z,2.70
2023-02-16T11:55:01.349Z,3.00
2023-02-16T11:57:33.150Z,2.50
2023-02-16T12:00:00.780Z,2.00
2023-02-16T12:02:57.375Z,2.70
2023-02-16T12:05:46.700Z,1.70
2023-02-16T12:08:26.270Z,2.10
2023-02-16T12:11:15.125Z,1.90
2023-02-16T12:13:54.028Z,2.40
2023-02-16T12:16:30.833Z,2.70
2023-02-16T12:19:43.421Z,2.70
2023-02-16T12:22:13.875Z,2.20
2023-02-16T12:24:57.298Z,2.80
2023-02-16T12:27:35.679Z,2.50
2023-02-16T12:30:11.456Z,2.30
2023-02-16T12:32:59.937Z,2.90
